createdAt,value
2019-01-25T00:02:17.393Z,-6.31
2019-01-25T00:04:44.036Z,-6.26
2019-01-25T00:07:10.713Z,-6.28
2019-01-25T00:09:37.414Z,-6.24
2019-01-25T00:12:04.014Z,-6.27
2019-01-25T00:14:30.634Z,-6.26
2019-01-25T00:16:57.197Z,-6.28
2019-01-25T00:19:23.809Z,-6.26
2019-01-25T00:21:50.380Z,-6.17
2019-01-25T00:24:16.979Z,-6.22
2019-01-25T00:26:43.570Z,-6.23
2019-01-25T00:29:10.169Z,-6.29
2019-01-25T00:31:36.770Z,-6.23
2019-01-25T00:34:03.518Z,-6.25
2019-01-25T00:36:30.244Z,-6.25
2019-01-25T00:38:56.886Z,-6.12
2019-01-25T00:41:23.554Z,-6.18
2019-01-25T00:43:50.435Z,-6.18
2019-01-25T00:46:17.075Z,-6.10
2019-01-25T00:48:43.974Z,-6.17
2019-01-25T00:51:10.988Z,-6.26
2019-01-25T00:53:37.702Z,-6.29
2019-01-25T00:56:04.728Z,-6.18
2019-01-25T00:58:31.313Z,-6.25
2019-01-25T01:00:57.877Z,-6.38
2019-01-25T01:03:24.499Z,-6.37
2019-01-25T01:05:51.175Z,-6.28
2019-01-25T01:08:17.881Z,-6.28
2019-01-25T01:10:44.529Z,-6.25
2019-01-25T01:13:11.101Z,-6.37
2019-01-25T01:15:37.667Z,-6.38
2019-01-25T01:18:04.307Z,-6.30
2019-01-25T01:20:30.915Z,-6.49
2019-01-25T01:22:57.559Z,-6.51
2019-01-25T01:25:24.118Z,-6.56
2019-01-25T01:27:50.713Z,-6.49
2019-01-25T01:30:20.195Z,-6.43
2019-01-25T01:32:46.811Z,-6.44
2019-01-25T01:35:13.375Z,-6.52
2019-01-25T01:37:40.053Z,-6.50
2019-01-25T01:40:12.066Z,-6.45
2019-01-25T01:42:38.744Z,-6.37
2019-01-25T01:45:06.226Z,-6.43
2019-01-25T01:47:32.915Z,-6.53
2019-01-25T01:49:59.498Z,-6.38
2019-01-25T01:52:26.218Z,-6.45
2019-01-25T01:54:52.826Z,-6.48
2019-01-25T01:57:19.400Z,-6.42
2019-01-25T01:59:45.996Z,-6.45
2019-01-25T02:02:12.682Z,-6.43
2019-01-25T02:04:39.282Z,-6.57
2019-01-25T02:07:05.895Z,-6.48
2019-01-25T02:09:33.572Z,-6.43
2019-01-25T02:12:00.248Z,-6.53
2019-01-25T02:14:26.948Z,-6.60
2019-01-25T02:16:53.589Z,-6.51
2019-01-25T02:19:20.247Z,-6.44
2019-01-25T02:21:47.144Z,-6.57
2019-01-25T02:24:16.841Z,-6.54
2019-01-25T02:26:43.502Z,-6.60
2019-01-25T02:29:10.054Z,-6.50
2019-01-25T02:31:36.684Z,-6.33
2019-01-25T02:34:03.425Z,-6.40
2019-01-25T02:36:30.002Z,-6.47
2019-01-25T02:38:56.676Z,-6.50
2019-01-25T02:41:23.351Z,-6.34
2019-01-25T02:43:49.925Z,-6.39
2019-01-25T02:46:16.518Z,-6.51
2019-01-25T02:48:43.230Z,-6.46
2019-01-25T02:51:09.810Z,-6.45
2019-01-25T02:53:36.453Z,-6.40
2019-01-25T02:56:03.394Z,-6.41
2019-01-25T02:58:30.100Z,-6.50
2019-01-25T03:00:56.777Z,-6.69
2019-01-25T03:03:27.482Z,-6.49
2019-01-25T03:05:54.060Z,-6.58
2019-01-25T03:08:20.665Z,-6.51
2019-01-25T03:10:47.476Z,-6.33
2019-01-25T03:13:14.222Z,-6.44
2019-01-25T03:15:40.816Z,-6.36
2019-01-25T03:18:07.807Z,-6.38
2019-01-25T03:20:34.402Z,-6.48
2019-01-25T03:23:01.258Z,-6.51
2019-01-25T03:25:29.070Z,-6.50
2019-01-25T03:27:55.707Z,-6.46
2019-01-25T03:30:24.445Z,-6.48
2019-01-25T03:32:51.290Z,-6.44
2019-01-25T03:35:21.055Z,-6.44
2019-01-25T03:37:48.632Z,-6.43
2019-01-25T03:40:20.142Z,-6.41
2019-01-25T03:42:46.727Z,-6.40
2019-01-25T03:45:14.353Z,-6.49
2019-01-25T03:47:41.069Z,-6.50
2019-01-25T03:50:13.419Z,-6.46
2019-01-25T03:52:39.997Z,-6.46
2019-01-25T03:55:10.611Z,-6.42
2019-01-25T03:57:37.162Z,-6.30
2019-01-25T04:00:09.544Z,-6.39
2019-01-25T04:02:36.090Z,-6.44
2019-01-25T04:05:08.255Z,-6.37
2019-01-25T04:07:35.469Z,-6.40
2019-01-25T04:10:06.424Z,-6.46
2019-01-25T04:12:33.367Z,-6.44
2019-01-25T04:15:00.325Z,-6.51
2019-01-25T04:17:27.615Z,-6.45
2019-01-25T04:19:54.685Z,-6.40
2019-01-25T04:22:21.768Z,-6.48
2019-01-25T04:24:48.965Z,-6.46
2019-01-25T04:27:16.591Z,-6.37
2019-01-25T04:29:44.181Z,-6.48
2019-01-25T04:32:11.812Z,-6.28
2019-01-25T04:34:39.236Z,-6.34
2019-01-25T04:37:06.823Z,-6.44
2019-01-25T04:39:34.499Z,-6.38
2019-01-25T04:42:02.095Z,-6.43
2019-01-25T04:44:29.596Z,-6.37
2019-01-25T04:46:56.674Z,-6.37
2019-01-25T04:49:24.165Z,-6.37
2019-01-25T04:51:51.756Z,-6.33
2019-01-25T04:54:18.852Z,-6.38
2019-01-25T04:56:45.532Z,-6.45
2019-01-25T04:59:12.134Z,-6.40
2019-01-25T05:01:38.683Z,-6.51
2019-01-25T05:04:05.251Z,-6.47
2019-01-25T05:06:32.236Z,-6.42
2019-01-25T05:08:58.843Z,-6.44
2019-01-25T05:11:26.258Z,-6.48
2019-01-25T05:13:53.582Z,-6.35
2019-01-25T05:16:20.733Z,-6.43
2019-01-25T05:18:47.993Z,-6.45
2019-01-25T05:21:18.626Z,-6.42
2019-01-25T05:23:45.703Z,-6.37
2019-01-25T05:26:14.995Z,-6.39
2019-01-25T05:28:41.935Z,-6.40
2019-01-25T05:31:09.226Z,-6.43
2019-01-25T05:33:36.113Z,-6.40
2019-01-25T05:36:03.583Z,-6.31
2019-01-25T05:38:30.419Z,-6.33
2019-01-25T05:40:57.823Z,-6.24
2019-01-25T05:43:24.751Z,-6.26
2019-01-25T05:45:51.708Z,-6.35
2019-01-25T05:48:18.415Z,-6.33
2019-01-25T05:50:45.066Z,-6.31
2019-01-25T05:53:12.798Z,-6.47
2019-01-25T05:55:39.443Z,-6.33
2019-01-25T05:58:08.201Z,-6.47
2019-01-25T06:00:36.826Z,-6.48
2019-01-25T06:03:06.778Z,-6.47
2019-01-25T06:05:33.401Z,-6.49
2019-01-25T06:08:00.073Z,-6.47
2019-01-25T06:10:31.158Z,-6.48
2019-01-25T06:12:57.851Z,-6.49
2019-01-25T06:15:27.387Z,-6.45
2019-01-25T06:17:54.507Z,-6.42
2019-01-25T06:20:21.482Z,-6.32
2019-01-25T06:22:48.977Z,-6.34
2019-01-25T06:25:15.601Z,-6.49
2019-01-25T06:27:42.583Z,-6.42
2019-01-25T06:30:12.870Z,-6.34
2019-01-25T06:32:41.842Z,-6.35
2019-01-25T06:35:10.496Z,-6.31
2019-01-25T06:37:37.198Z,-6.45
2019-01-25T06:40:08.773Z,-6.38
2019-01-25T06:42:35.977Z,-6.35
2019-01-25T06:45:06.492Z,-6.21
2019-01-25T06:47:33.120Z,-6.30
2019-01-25T06:49:59.752Z,-6.25
2019-01-25T06:52:26.465Z,-6.30
2019-01-25T06:54:53.285Z,-6.32
2019-01-25T06:57:22.117Z,-6.42
2019-01-25T06:59:50.020Z,-6.37
2019-01-25T07:02:16.832Z,-6.22
2019-01-25T07:04:43.500Z,-6.16
2019-01-25T07:07:12.121Z,-6.20
2019-01-25T07:09:39.789Z,-6.18
2019-01-25T07:12:06.422Z,-6.21
2019-01-25T07:14:33.059Z,-6.24
2019-01-25T07:16:59.813Z,-6.17
2019-01-25T07:19:26.445Z,-6.21
2019-01-25T07:21:53.167Z,-6.13
2019-01-25T07:24:20.940Z,-6.01
2019-01-25T07:26:47.575Z,-6.07
2019-01-25T07:29:14.191Z,-6.09
2019-01-25T07:31:40.824Z,-5.99
2019-01-25T07:34:08.536Z,-6.00
2019-01-25T07:36:37.382Z,-6.07
2019-01-25T07:39:09.783Z,-6.10
2019-01-25T07:41:36.454Z,-6.05
2019-01-25T07:44:03.052Z,-5.95
2019-01-25T07:46:29.779Z,-6.00
2019-01-25T07:48:56.653Z,-6.00
2019-01-25T07:51:23.365Z,-6.00
2019-01-25T07:53:50.032Z,-5.94
2019-01-25T07:56:16.713Z,-5.97
2019-01-25T07:58:43.525Z,-5.80
2019-01-25T08:01:10.213Z,-5.99
2019-01-25T08:03:37.461Z,-6.13
2019-01-25T08:06:04.199Z,-6.01
2019-01-25T08:08:30.839Z,-6.03
2019-01-25T08:10:57.619Z,-5.97
2019-01-25T08:13:24.219Z,-5.98
2019-01-25T08:15:50.893Z,-5.84
2019-01-25T08:18:17.679Z,-6.07
2019-01-25T08:20:44.311Z,-5.82
2019-01-25T08:23:10.921Z,-5.72
2019-01-25T08:25:37.581Z,-5.73
2019-01-25T08:28:04.242Z,-5.84
2019-01-25T08:30:31.017Z,-5.75
2019-01-25T08:32:57.600Z,-5.82
2019-01-25T08:35:24.196Z,-5.69
2019-01-25T08:37:51.032Z,-5.74
2019-01-25T08:40:17.804Z,-5.77
2019-01-25T08:42:44.459Z,-5.79
2019-01-25T08:45:14.655Z,-5.78
2019-01-25T08:47:44.517Z,-5.75
2019-01-25T08:50:16.753Z,-5.62
2019-01-25T08:52:43.554Z,-5.57
2019-01-25T08:55:10.283Z,-5.53
2019-01-25T08:57:36.901Z,-5.62
2019-01-25T09:00:09.349Z,-5.55
2019-01-25T09:02:36.052Z,-5.35
2019-01-25T09:05:06.420Z,-5.49
2019-01-25T09:07:33.066Z,-5.50
2019-01-25T09:10:09.247Z,-5.48
2019-01-25T09:12:35.928Z,-5.34
2019-01-25T09:15:07.493Z,-5.74
2019-01-25T09:17:34.152Z,-5.58
2019-01-25T09:20:00.805Z,-5.57
2019-01-25T09:22:27.563Z,-5.52
2019-01-25T09:24:54.155Z,-5.48
2019-01-25T09:27:20.826Z,-5.40
2019-01-25T09:29:47.483Z,-5.29
2019-01-25T09:32:15.190Z,-5.47
2019-01-25T09:34:41.848Z,-5.52
2019-01-25T09:37:09.663Z,-5.56
2019-01-25T09:39:36.212Z,-5.56
2019-01-25T09:42:02.989Z,-5.55
2019-01-25T09:44:29.819Z,-5.27
2019-01-25T09:46:56.445Z,-5.40
2019-01-25T09:49:25.700Z,-5.25
2019-01-25T09:51:52.405Z,-5.23
2019-01-25T09:54:19.147Z,-5.35
2019-01-25T09:56:46.179Z,-5.48
2019-01-25T09:59:12.842Z,-5.45
2019-01-25T10:01:39.502Z,-5.44
2019-01-25T10:04:06.125Z,-5.17
2019-01-25T10:06:32.921Z,-5.26
2019-01-25T10:08:59.499Z,-5.22
2019-01-25T10:11:26.220Z,-5.20
2019-01-25T10:13:52.925Z,-5.29
2019-01-25T10:16:19.560Z,-5.38
2019-01-25T10:18:46.222Z,-5.34
2019-01-25T10:21:13.531Z,-5.31
2019-01-25T10:23:40.706Z,-5.36
2019-01-25T10:26:08.012Z,-5.14
2019-01-25T10:28:34.876Z,-5.14
2019-01-25T10:31:01.631Z,-5.15
2019-01-25T10:33:28.442Z,-5.06
2019-01-25T10:35:56.212Z,-5.13
2019-01-25T10:39:19.619Z,-5.08
2019-01-25T10:41:46.353Z,-5.03
2019-01-25T10:44:12.928Z,-5.24
2019-01-25T10:46:39.738Z,-5.13
2019-01-25T10:49:06.366Z,-5.24
2019-01-25T10:51:33.027Z,-5.32
2019-01-25T10:53:59.921Z,-5.04
2019-01-25T10:56:26.757Z,-5.09
2019-01-25T10:58:53.399Z,-5.09
2019-01-25T11:01:20.005Z,-5.11
2019-01-25T11:03:46.988Z,-4.98
2019-01-25T11:06:13.691Z,-5.25
2019-01-25T11:08:40.441Z,-5.01
2019-01-25T11:11:07.150Z,-5.05
2019-01-25T11:13:33.926Z,-4.95
2019-01-25T11:16:00.798Z,-5.01
2019-01-25T11:18:27.762Z,-5.07
2019-01-25T11:20:54.460Z,-4.90
2019-01-25T11:23:21.107Z,-4.79
2019-01-25T11:25:47.731Z,-4.90
2019-01-25T11:28:14.402Z,-4.91
2019-01-25T11:30:41.083Z,-5.01
2019-01-25T11:33:07.741Z,-5.35
2019-01-25T11:35:34.426Z,-5.09
2019-01-25T11:38:01.108Z,-5.22
2019-01-25T11:40:32.728Z,-5.05
2019-01-25T11:42:59.383Z,-5.07
2019-01-25T11:45:25.932Z,-5.09
2019-01-25T11:47:52.546Z,-5.13
2019-01-25T11:50:20.274Z,-5.22
2019-01-25T11:52:47.267Z,-5.02
2019-01-25T11:55:16.362Z,-5.18
2019-01-25T11:57:43.165Z,-5.20
2019-01-25T12:00:16.084Z,-4.97
2019-01-25T12:02:42.814Z,-4.93
2019-01-25T12:05:13.638Z,-4.90
2019-01-25T12:07:40.294Z,-5.05
2019-01-25T12:10:12.112Z,-4.80
2019-01-25T12:12:38.784Z,-4.97
2019-01-25T12:17:27.012Z,-4.70
2019-01-25T12:19:53.739Z,-4.87
2019-01-25T12:22:20.394Z,-4.93
2019-01-25T12:24:47.038Z,-4.95
2019-01-25T12:27:13.625Z,-4.91
2019-01-25T12:29:41.312Z,-4.86
2019-01-25T12:32:07.989Z,-4.84
2019-01-25T12:34:34.648Z,-4.79
2019-01-25T12:37:04.710Z,-4.74
2019-01-25T12:39:30.142Z,-4.85
2019-01-25T12:41:56.800Z,-4.82
2019-01-25T12:44:23.388Z,-5.00
2019-01-25T12:46:49.956Z,-4.73
2019-01-25T12:49:16.562Z,-4.69
2019-01-25T12:51:43.610Z,-5.09
2019-01-25T12:54:10.344Z,-5.07
2019-01-25T12:56:37.106Z,-4.92
2019-01-25T12:59:03.704Z,-5.22
2019-01-25T13:01:34.942Z,-5.01
2019-01-25T13:03:59.018Z,-4.94
2019-01-25T13:06:25.663Z,-5.17
2019-01-25T13:08:52.325Z,-5.10
2019-01-25T13:11:19.089Z,-5.32
2019-01-25T13:13:45.851Z,-5.27
2019-01-25T13:16:15.538Z,-5.16
2019-01-25T13:18:42.312Z,-5.03
2019-01-25T13:21:08.971Z,-5.18
2019-01-25T13:23:35.581Z,-5.22
2019-01-25T13:26:02.281Z,-5.26
2019-01-25T13:28:29.358Z,-5.32
2019-01-25T13:30:56.242Z,-5.09
2019-01-25T13:33:23.006Z,-5.17
2019-01-25T13:35:49.753Z,-5.27
2019-01-25T13:38:16.526Z,-5.06
2019-01-25T13:40:43.398Z,-5.29
2019-01-25T13:43:10.193Z,-5.06
2019-01-25T13:45:36.940Z,-4.97
2019-01-25T13:48:03.818Z,-4.95
2019-01-25T13:50:30.568Z,-5.16
2019-01-25T13:52:57.146Z,-5.23
2019-01-25T13:55:24.112Z,-5.21
2019-01-25T13:57:50.701Z,-5.15
2019-01-25T14:00:23.035Z,-5.01
2019-01-25T14:02:51.058Z,-5.51
2019-01-25T14:05:17.735Z,-5.40
2019-01-25T14:07:44.313Z,-5.48
2019-01-25T14:10:16.710Z,-5.31
2019-01-25T14:12:43.451Z,-5.15
2019-01-25T14:15:10.204Z,-5.14
2019-01-25T14:17:36.987Z,-5.30
2019-01-25T14:20:09.317Z,-5.21
2019-01-25T14:22:35.931Z,-5.29
2019-01-25T14:25:04.876Z,-5.39
2019-01-25T14:27:31.506Z,-5.46
2019-01-25T14:29:58.133Z,-5.50
2019-01-25T14:32:24.992Z,-5.40
2019-01-25T14:34:51.595Z,-5.30
2019-01-25T14:37:18.178Z,-5.11
2019-01-25T14:39:44.811Z,-5.21
2019-01-25T14:42:11.466Z,-5.39
2019-01-25T14:44:38.067Z,-5.27
2019-01-25T14:47:04.981Z,-5.30
2019-01-25T14:49:31.664Z,-5.27
2019-01-25T14:51:58.322Z,-5.42
2019-01-25T14:54:24.928Z,-5.40
2019-01-25T14:56:51.763Z,-5.35
2019-01-25T14:59:18.355Z,-5.40
2019-01-25T15:01:45.016Z,-5.48
2019-01-25T15:04:11.632Z,-5.61
2019-01-25T15:07:34.752Z,-5.69
2019-01-25T15:10:05.502Z,-5.65
2019-01-25T15:12:34.212Z,-5.60
2019-01-25T15:15:00.866Z,-5.67
2019-01-25T15:17:28.761Z,-5.49
2019-01-25T15:19:55.383Z,-5.48
2019-01-25T15:22:21.989Z,-5.63
2019-01-25T15:24:48.554Z,-5.55
2019-01-25T15:27:15.289Z,-5.35
2019-01-25T15:29:42.050Z,-5.27
2019-01-25T15:32:08.688Z,-5.24
2019-01-25T15:34:35.295Z,-5.28
2019-01-25T15:37:03.418Z,-5.44
2019-01-25T15:39:30.299Z,-5.39
2019-01-25T15:41:56.968Z,-5.44
2019-01-25T15:44:23.576Z,-5.25
2019-01-25T15:50:50.380Z,-5.23
2019-01-25T15:53:17.031Z,-5.21
2019-01-25T15:55:43.873Z,-5.48
2019-01-25T15:58:10.808Z,-5.35
2019-01-25T16:00:37.551Z,-5.33
2019-01-25T16:03:04.470Z,-5.27
2019-01-25T16:05:31.098Z,-5.20
2019-01-25T16:07:57.762Z,-5.21
2019-01-25T16:10:24.507Z,-5.13
2019-01-25T16:12:51.821Z,-5.17
2019-01-25T16:15:25.721Z,-5.20
2019-01-25T16:17:52.967Z,-5.23
2019-01-25T16:20:19.726Z,-5.30
2019-01-25T16:22:48.907Z,-5.34
2019-01-25T16:25:19.505Z,-5.25
2019-01-25T16:27:46.214Z,-5.24
2019-01-25T16:30:17.833Z,-5.24
2019-01-25T16:32:44.701Z,-5.18
2019-01-25T16:35:11.587Z,-5.20
2019-01-25T16:37:38.403Z,-5.34
2019-01-25T16:40:10.765Z,-5.32
2019-01-25T16:42:37.682Z,-5.30
2019-01-25T16:45:10.011Z,-5.35
2019-01-25T16:47:36.646Z,-5.25
2019-01-25T16:50:06.253Z,-5.21
2019-01-25T16:52:32.942Z,-5.17
2019-01-25T16:55:00.261Z,-5.13
2019-01-25T16:57:28.453Z,-5.15
2019-01-25T16:59:55.126Z,-5.08
2019-01-25T17:02:21.804Z,-5.13
2019-01-25T17:04:48.470Z,-5.08
2019-01-25T17:07:15.124Z,-5.26
2019-01-25T17:09:41.759Z,-5.41
2019-01-25T17:12:08.365Z,-5.40
2019-01-25T17:14:35.077Z,-5.23
2019-01-25T17:17:01.712Z,-5.14
2019-01-25T17:19:28.564Z,-5.19
2019-01-25T17:21:55.258Z,-5.20
2019-01-25T17:24:21.939Z,-5.20
2019-01-25T17:26:48.529Z,-5.20
2019-01-25T17:29:15.174Z,-5.37
2019-01-25T17:31:41.872Z,-5.26
2019-01-25T17:34:08.600Z,-5.17
2019-01-25T17:36:35.179Z,-5.16
2019-01-25T17:39:03.993Z,-5.21
2019-01-25T17:41:31.737Z,-5.21
2019-01-25T17:43:58.518Z,-5.17
2019-01-25T17:46:25.557Z,-5.21
2019-01-25T17:48:52.577Z,-5.25
2019-01-25T17:51:19.493Z,-5.20
2019-01-25T17:53:46.101Z,-5.18
2019-01-25T17:56:12.795Z,-5.24
2019-01-25T17:58:39.548Z,-5.28
2019-01-25T18:01:06.217Z,-5.28
2019-01-25T18:03:32.977Z,-5.32
2019-01-25T18:05:59.733Z,-5.39
2019-01-25T18:08:26.542Z,-5.38
2019-01-25T18:10:53.811Z,-5.39
2019-01-25T18:13:20.922Z,-5.54
2019-01-25T18:15:48.013Z,-5.65
2019-01-25T18:18:15.265Z,-5.49
2019-01-25T18:20:42.599Z,-5.30
2019-01-25T18:23:09.799Z,-5.41
2019-01-25T18:25:41.739Z,-5.34
2019-01-25T18:28:14.313Z,-5.35
2019-01-25T18:30:47.152Z,-5.32
2019-01-25T18:33:13.942Z,-5.30
2019-01-25T18:35:40.665Z,-5.23
2019-01-25T18:38:08.760Z,-5.24
2019-01-25T18:40:35.596Z,-5.37
2019-01-25T18:43:02.693Z,-5.35
2019-01-25T18:45:29.654Z,-5.23
2019-01-25T18:47:57.811Z,-5.45
2019-01-25T18:50:24.586Z,-5.61
2019-01-25T18:52:51.280Z,-5.69
2019-01-25T18:55:22.258Z,-5.58
2019-01-25T18:57:49.109Z,-5.60
2019-01-25T19:00:19.054Z,-5.43
2019-01-25T19:02:46.354Z,-5.39
2019-01-25T19:05:12.972Z,-5.31
2019-01-25T19:07:39.623Z,-5.30
2019-01-25T19:10:12.105Z,-5.25
2019-01-25T19:12:38.784Z,-5.16
2019-01-25T19:15:11.228Z,-5.17
2019-01-25T19:17:37.812Z,-5.27
2019-01-25T19:20:09.445Z,-5.27
2019-01-25T19:22:36.192Z,-5.22
2019-01-25T19:25:07.252Z,-5.20
2019-01-25T19:27:33.810Z,-5.21
2019-01-25T19:30:00.453Z,-5.19
2019-01-25T19:32:27.322Z,-5.15
2019-01-25T19:34:53.967Z,-5.17
2019-01-25T19:37:20.515Z,-5.18
2019-01-25T19:39:47.211Z,-5.18
2019-01-25T19:42:13.914Z,-5.29
2019-01-25T19:44:40.547Z,-5.31
2019-01-25T19:47:07.323Z,-5.23
2019-01-25T19:49:34.038Z,-5.16
2019-01-25T19:52:00.973Z,-5.11
2019-01-25T19:54:27.798Z,-5.09
2019-01-25T19:56:54.610Z,-5.11
2019-01-25T19:59:21.418Z,-5.07
2019-01-25T20:01:48.253Z,-5.15
2019-01-25T20:04:14.910Z,-5.17
2019-01-25T20:06:41.615Z,-5.19
2019-01-25T20:09:08.536Z,-5.18
2019-01-25T20:11:35.220Z,-5.13
2019-01-25T20:14:01.995Z,-5.14
2019-01-25T20:16:28.865Z,-5.01
2019-01-25T20:18:55.467Z,-5.04
2019-01-25T20:21:22.096Z,-4.96
2019-01-25T20:23:48.647Z,-5.13
2019-01-25T20:26:15.337Z,-5.11
2019-01-25T20:28:41.894Z,-5.10
2019-01-25T20:31:08.466Z,-5.09
2019-01-25T20:33:35.181Z,-5.09
2019-01-25T20:36:01.988Z,-5.14
2019-01-25T20:38:28.619Z,-5.13
2019-01-25T20:40:55.322Z,-5.14
2019-01-25T20:43:21.942Z,-5.11
2019-01-25T20:45:48.746Z,-5.05
2019-01-25T20:48:15.530Z,-5.13
2019-01-25T20:50:42.353Z,-5.10
2019-01-25T20:53:12.249Z,-5.14
2019-01-25T20:55:38.853Z,-5.13
2019-01-25T20:58:05.614Z,-5.08
2019-01-25T21:00:37.007Z,-5.23
2019-01-25T21:03:06.503Z,-5.27
2019-01-25T21:05:33.321Z,-5.17
2019-01-25T21:07:59.884Z,-5.24
2019-01-25T21:10:26.783Z,-5.24
2019-01-25T21:12:53.486Z,-5.13
2019-01-25T21:15:23.447Z,-5.03
2019-01-25T21:17:50.154Z,-5.12
2019-01-25T21:20:22.607Z,-5.12
2019-01-25T21:22:49.202Z,-5.09
2019-01-25T21:25:15.900Z,-5.12
2019-01-25T21:27:42.706Z,-5.03
2019-01-25T21:30:14.889Z,-5.07
2019-01-25T21:32:41.542Z,-5.17
2019-01-25T21:35:08.603Z,-5.14
2019-01-25T21:37:35.385Z,-5.08
2019-01-25T21:40:08.622Z,-5.24
2019-01-25T21:42:34.053Z,-5.15
2019-01-25T21:45:00.860Z,-5.25
2019-01-25T21:47:27.677Z,-5.23
2019-01-25T21:49:54.581Z,-5.20
2019-01-25T21:52:21.471Z,-5.28
2019-01-25T21:54:48.043Z,-5.35
2019-01-25T21:57:14.652Z,-5.42
2019-01-25T21:59:41.266Z,-5.54
2019-01-25T22:02:07.861Z,-5.58
2019-01-25T22:04:34.538Z,-5.64
2019-01-25T22:07:01.176Z,-5.55
2019-01-25T22:09:28.011Z,-5.65
2019-01-25T22:11:54.592Z,-5.66
2019-01-25T22:14:21.188Z,-5.79
2019-01-25T22:16:49.699Z,-5.82
2019-01-25T22:19:16.326Z,-5.85
2019-01-25T22:21:43.014Z,-6.01
2019-01-25T22:24:09.732Z,-5.96
2019-01-25T22:26:36.355Z,-5.95
2019-01-25T22:29:03.090Z,-5.96
2019-01-25T22:31:29.805Z,-5.92
2019-01-25T22:33:56.519Z,-5.97
2019-01-25T22:36:23.135Z,-5.95
2019-01-25T22:38:49.889Z,-5.96
2019-01-25T22:41:16.512Z,-6.06
2019-01-25T22:43:43.186Z,-6.09
2019-01-25T22:46:10.007Z,-6.09
2019-01-25T22:48:36.631Z,-5.93
2019-01-25T22:51:03.338Z,-5.97
2019-01-25T22:53:30.112Z,-6.06
2019-01-25T22:55:56.742Z,-6.06
2019-01-25T22:58:23.459Z,-6.08
2019-01-25T23:00:57.711Z,-6.18
2019-01-25T23:03:30.222Z,-6.15
2019-01-25T23:06:00.687Z,-6.25
2019-01-25T23:08:27.475Z,-6.11
2019-01-25T23:10:54.118Z,-6.11
2019-01-25T23:13:20.856Z,-6.07
2019-01-25T23:15:47.440Z,-6.16
2019-01-25T23:18:14.116Z,-6.01
2019-01-25T23:20:40.740Z,-6.11
2019-01-25T23:23:07.416Z,-6.09
2019-01-25T23:25:34.029Z,-6.07
2019-01-25T23:28:00.989Z,-6.22
2019-01-25T23:30:27.648Z,-6.10
2019-01-25T23:32:54.296Z,-6.16
2019-01-25T23:35:20.991Z,-6.17
2019-01-25T23:37:47.556Z,-6.04
2019-01-25T23:40:14.155Z,-6.10
2019-01-25T23:42:40.928Z,-6.14
2019-01-25T23:45:07.870Z,-6.07
2019-01-25T23:47:34.466Z,-5.97
2019-01-25T23:50:01.234Z,-5.93
2019-01-25T23:52:28.091Z,-6.00
2019-01-25T23:54:54.666Z,-6.01
2019-01-25T23:58:17.695Z,-6.02
